House Springs, MO (63051)

10:02 PM CDT on October 15, 2019 (GMT -0500)
Olde Mill Estates | | Change Station
Active Advisory: Flood Warning

Elev 568 ft 38.43 °N, 90.57 °W | Updated 2 minutes ago

Clear
Clear
59.7 °F
Feels Like 59.7 °F
N
6.3
Wind Variable Wind from WNW
Gusts 8.9 mph

Today
High -- | Low -- °F
--% Chance of Precip.
Yesterday
High -- | Low -- °F
Precip. -- in
Pressure 29.91 in
Visibility 10.0 miles
Clouds Clear
Dew Point 46 °F
Humidity 59%
Rainfall 0.00 in
Snow Depth Not available.
7:11 AM 6:24 PM
Waning Gibbous, 95% visible
METAR KSUS 160154Z 31010KT 10SM CLR 17/07 A2991 RMK AO2 SLP126 T01670072
Pressure 29.91 in
Visibility 10.0 miles
Clouds Clear
Dew Point 46 °F
Humidity 59%
Rainfall 0.00 in
Snow Depth Not available.
7:11 AM 6:24 PM
Waning Gibbous, 95% visible
METAR KSUS 160154Z 31010KT 10SM CLR 17/07 A2991 RMK AO2 SLP126 T01670072

Get Your Daily Forecast Email!

Thanks for signing up!

Be on the lookout for a verification email in your inbox.

You'll start receiving severe weather alerts in your inbox..

×

10-Day Weather Forecast

Almanac

Astronomy

Oct. 15, 2019 Rise Set
Actual Time
Civil Twilight
Nautical Twilight
Astronomical Twilight
Moon
Length of Visible Light
Length of Day
Tomorrow will be .
, % of the Moon is Illuminated

Today's Extremes

State Highs State Lows

Community

WunderPhotos

Category 6

Welcome to Category 6. This is the collective home for Weather Underground's featured writeups by Dr. Jeff Masters (right), Bob Henson (left), Chris Burt, and other regular contributors.

Nearby

Air Quality

  Air Quality AQ Index Pollutant
Not available.

Snow Depth

Station Depth Elevation

Earthquake Activity

City Distance Mag. Time & Date
Minimum magnitude displayed is 2.5.

Coastal Water Temperatures

Place Temperature

Stations

Nearby Weather Stations

Station Location Temp. Windchill Dew Point Humidity Wind Precip. Elev Updated Type
                   

Watches & Warnings

Flood Warning
Issued: 9:54 AM CDT Oct. 14, 2019 – National Weather Service

The Flood Warning continues for
the Meramec river near Arnold
* until further notice.
* At 9:30 am Monday the stage was 28.5 feet.
* Flood stage is 24.0 feet.
* Minor flooding is forecast.
* The river is forecast to continue falling to a stage of 27.6 feet
by tomorrow morning.
* Impact: at 27.0 feet... Meramec bottom Road between Wells Road and
kerth Road begins flooding near this height.

                   Fld latest 7 a.M. Forecast
location stg obs stg 10/15 10/16 10/17 10/18 10/19

Meramec river
Arnold 24.0 28.45 27.6 27.0 26.6 26.4 26.2




Lat... Lon 3848 9043 3848 9039 3846 9032 3841 9034
     3845 9043